createdAt,value
2019-02-06T00:02:13.730Z,20.03
2019-02-06T00:04:43.125Z,18.00
2019-02-06T00:07:19.128Z,20.57
2019-02-06T00:09:50.092Z,19.43
2019-02-06T00:12:27.807Z,19.65
2019-02-06T00:14:59.831Z,19.98
2019-02-06T00:17:33.616Z,20.57
2019-02-06T00:20:10.164Z,20.67
2019-02-06T00:22:43.844Z,20.30
2019-02-06T00:25:13.788Z,21.10
2019-02-06T00:27:44.691Z,19.47
2019-02-06T00:30:15.252Z,20.48
2019-02-06T00:32:48.314Z,21.27
2019-02-06T00:37:55.974Z,19.73
2019-02-06T00:40:25.116Z,21.02
2019-02-06T00:42:54.252Z,20.83
2019-02-06T00:45:23.877Z,19.80
2019-02-06T00:47:53.454Z,19.80
2019-02-06T00:50:22.857Z,19.37
2019-02-06T00:52:52.479Z,20.40
2019-02-06T00:55:24.813Z,18.82
2019-02-06T00:57:54.047Z,19.25
2019-02-06T01:00:23.795Z,19.35
2019-02-06T01:02:53.268Z,18.10
2019-02-06T01:05:22.813Z,18.60
2019-02-06T01:07:52.288Z,18.37
2019-02-06T01:10:22.749Z,18.52
2019-02-06T01:12:51.962Z,17.70
2019-02-06T01:15:26.023Z,19.82
2019-02-06T01:17:55.628Z,18.40
2019-02-06T01:20:24.811Z,18.35
2019-02-06T01:22:53.976Z,19.00
2019-02-06T01:25:23.479Z,18.40
2019-02-06T01:27:52.635Z,19.65
2019-02-06T01:30:24.194Z,18.93
2019-02-06T01:32:53.387Z,18.70
2019-02-06T01:35:22.843Z,17.80
2019-02-06T01:37:52.099Z,20.00
2019-02-06T01:40:25.727Z,18.57
2019-02-06T01:42:55.959Z,18.30
2019-02-06T01:45:25.257Z,19.25
2019-02-06T01:47:55.641Z,18.42
2019-02-06T01:50:25.430Z,19.37
2019-02-06T01:52:54.654Z,17.03
2019-02-06T01:55:23.823Z,18.02
2019-02-06T01:57:53.455Z,18.17
2019-02-06T02:00:24.040Z,17.07
2019-02-06T02:02:53.562Z,18.30
2019-02-06T02:05:27.105Z,18.97
2019-02-06T02:07:56.411Z,18.73
2019-02-06T02:10:25.581Z,18.80
2019-02-06T02:12:54.788Z,18.00
2019-02-06T02:15:23.922Z,20.67
2019-02-06T02:17:53.576Z,18.83
2019-02-06T02:20:23.452Z,18.45
2019-02-06T02:22:53.109Z,19.57
2019-02-06T02:25:22.251Z,18.63
2019-02-06T02:27:51.501Z,20.30
2019-02-06T02:30:26.526Z,20.33
2019-02-06T02:32:55.641Z,19.87
2019-02-06T02:35:25.130Z,20.25
2019-02-06T02:37:54.283Z,19.20
2019-02-06T02:40:23.447Z,18.00
2019-02-06T02:42:53.105Z,20.77
2019-02-06T02:45:22.975Z,20.10
2019-02-06T02:47:52.619Z,19.60
2019-02-06T02:50:21.832Z,19.57
2019-02-06T02:52:51.529Z,18.12
2019-02-06T02:55:23.557Z,19.90
2019-02-06T02:57:52.902Z,21.07
2019-02-06T03:00:26.684Z,19.50
2019-02-06T03:03:03.040Z,20.10
2019-02-06T03:05:34.770Z,20.52
2019-02-06T03:08:04.109Z,19.70
2019-02-06T03:10:33.959Z,19.30
2019-02-06T03:13:03.610Z,20.67
2019-02-06T03:15:32.762Z,21.33
2019-02-06T03:18:01.979Z,20.37
2019-02-06T03:20:31.205Z,19.60
2019-02-06T03:23:00.426Z,21.40
2019-02-06T03:25:29.634Z,22.07
2019-02-06T03:27:58.828Z,20.45
2019-02-06T03:30:28.057Z,22.25
2019-02-06T03:32:58.068Z,21.63
2019-02-06T03:35:27.267Z,21.77
2019-02-06T03:38:02.001Z,19.45
2019-02-06T03:40:32.659Z,20.53
2019-02-06T03:43:02.339Z,20.30
2019-02-06T03:45:31.866Z,18.57
2019-02-06T03:48:01.440Z,20.68
2019-02-06T03:50:30.756Z,21.00
2019-02-06T03:52:59.909Z,19.75
2019-02-06T03:55:29.198Z,21.33
2019-02-06T03:57:59.149Z,21.40
2019-02-06T04:00:28.751Z,20.40
2019-02-06T04:03:01.138Z,20.40
2019-02-06T04:05:30.346Z,20.00
2019-02-06T04:07:59.456Z,20.33
2019-02-06T04:10:28.922Z,22.50
2019-02-06T04:12:58.773Z,23.87
2019-02-06T04:15:28.196Z,23.73
2019-02-06T04:17:57.391Z,25.45
2019-02-06T04:20:26.576Z,21.80
2019-02-06T04:22:55.798Z,22.10
2019-02-06T04:25:29.291Z,22.57
2019-02-06T04:27:58.450Z,21.13
2019-02-06T04:30:28.012Z,21.90
2019-02-06T04:32:57.271Z,21.90
2019-02-06T04:35:26.409Z,23.67
2019-02-06T04:37:55.562Z,21.87
2019-02-06T04:40:24.982Z,21.40
2019-02-06T04:42:54.424Z,19.63
2019-02-06T04:45:23.821Z,19.93
2019-02-06T04:47:52.974Z,21.33
2019-02-06T04:50:22.483Z,20.43
2019-02-06T04:52:51.648Z,22.33
2019-02-06T04:55:20.914Z,21.62
2019-02-06T04:57:50.472Z,21.52
2019-02-06T05:00:21.791Z,21.63
2019-02-06T05:02:50.963Z,21.90
2019-02-06T05:05:20.156Z,19.60
2019-02-06T05:07:49.627Z,19.90
2019-02-06T05:10:18.818Z,21.33
2019-02-06T05:12:48.362Z,20.97
2019-02-06T05:15:17.877Z,21.37
2019-02-06T05:18:03.981Z,20.60
2019-02-06T05:20:41.689Z,20.35
2019-02-06T05:23:11.324Z,21.67
2019-02-06T05:25:40.468Z,20.88
2019-02-06T05:28:09.927Z,20.07
2019-02-06T05:30:39.350Z,22.65
2019-02-06T05:33:08.769Z,23.27
2019-02-06T05:35:37.986Z,21.80
2019-02-06T05:38:07.588Z,21.50
2019-02-06T05:40:36.843Z,22.00
2019-02-06T05:43:06.418Z,21.15
2019-02-06T05:45:35.678Z,21.60
2019-02-06T05:48:04.844Z,22.55
2019-02-06T05:50:34.119Z,24.87
2019-02-06T05:53:05.925Z,26.30
2019-02-06T05:55:38.815Z,22.77
2019-02-06T05:58:08.039Z,22.20
2019-02-06T06:00:42.718Z,24.73
2019-02-06T06:03:11.855Z,21.07
2019-02-06T06:05:41.506Z,22.90
2019-02-06T06:08:11.325Z,22.20
2019-02-06T06:10:40.955Z,24.83
2019-02-06T06:13:12.607Z,23.40
2019-02-06T06:15:41.762Z,21.17
2019-02-06T06:18:15.731Z,22.48
2019-02-06T06:20:45.770Z,20.73
2019-02-06T06:23:15.102Z,24.07
2019-02-06T06:25:44.821Z,22.50
2019-02-06T06:28:25.163Z,23.12
2019-02-06T06:30:58.930Z,23.07
2019-02-06T06:33:29.775Z,21.60
2019-02-06T06:36:01.527Z,21.60
2019-02-06T06:38:31.817Z,21.60
2019-02-06T06:41:04.368Z,22.43
2019-02-06T06:43:39.740Z,23.10
2019-02-06T06:46:08.936Z,21.50
2019-02-06T06:48:38.095Z,21.68
2019-02-06T06:51:07.346Z,20.97
2019-02-06T06:53:36.582Z,21.70
2019-02-06T06:56:06.146Z,21.77
2019-02-06T06:58:35.307Z,22.93
2019-02-06T07:01:04.565Z,23.13
2019-02-06T07:03:34.107Z,21.53
2019-02-06T07:06:03.342Z,22.25
2019-02-06T07:08:32.530Z,22.20
2019-02-06T07:11:02.153Z,22.10
2019-02-06T07:13:31.281Z,22.95
2019-02-06T07:16:00.762Z,24.50
2019-02-06T07:18:30.478Z,22.60
2019-02-06T07:21:01.635Z,22.13
2019-02-06T07:23:30.963Z,23.57
2019-02-06T07:26:00.184Z,22.35
2019-02-06T07:28:29.850Z,23.67
2019-02-06T07:30:59.435Z,23.17
2019-02-06T07:33:28.571Z,22.97
2019-02-06T07:35:58.083Z,22.73
2019-02-06T07:38:27.690Z,23.22
2019-02-06T07:40:57.472Z,23.37
2019-02-06T07:43:26.647Z,23.00
2019-02-06T07:45:55.780Z,24.50
2019-02-06T07:48:25.346Z,23.60
2019-02-06T07:50:54.800Z,22.60
2019-02-06T07:53:24.252Z,22.97
2019-02-06T07:55:53.375Z,24.43
2019-02-06T07:58:23.342Z,23.85
2019-02-06T08:00:52.526Z,23.83
2019-02-06T08:03:21.893Z,22.30
2019-02-06T08:05:51.164Z,23.27
2019-02-06T08:08:20.387Z,23.30
2019-02-06T08:10:49.995Z,23.70
2019-02-06T08:13:19.580Z,22.80
2019-02-06T08:15:48.759Z,22.65
2019-02-06T08:18:18.330Z,23.23
2019-02-06T08:20:47.568Z,23.27
2019-02-06T08:23:17.209Z,23.07
2019-02-06T08:25:46.466Z,24.37
2019-02-06T08:28:15.623Z,24.20
2019-02-06T08:30:44.835Z,23.53
2019-02-06T08:33:14.436Z,22.70
2019-02-06T08:35:43.641Z,21.93
2019-02-06T08:38:12.872Z,25.40
2019-02-06T08:40:42.108Z,23.45
2019-02-06T08:43:12.672Z,22.40
2019-02-06T08:45:42.299Z,25.40
2019-02-06T08:48:12.034Z,22.97
2019-02-06T08:50:41.619Z,23.80
2019-02-06T08:53:11.150Z,23.00
2019-02-06T08:55:40.737Z,23.10
2019-02-06T08:58:10.209Z,24.00
2019-02-06T09:00:40.428Z,24.00
2019-02-06T09:03:10.819Z,25.17
2019-02-06T09:05:40.059Z,26.65
2019-02-06T09:08:09.636Z,24.10
2019-02-06T09:10:41.194Z,24.70
2019-02-06T09:13:10.692Z,24.30
2019-02-06T09:15:39.830Z,24.00
2019-02-06T09:18:09.406Z,22.03
2019-02-06T09:20:39.243Z,25.60
2019-02-06T09:23:08.419Z,26.37
2019-02-06T09:25:37.553Z,25.30
2019-02-06T09:28:06.695Z,25.50
2019-02-06T09:30:35.867Z,23.93
2019-02-06T09:33:05.700Z,25.60
2019-02-06T09:35:34.926Z,26.10
2019-02-06T09:38:04.152Z,24.20
2019-02-06T09:40:33.371Z,25.27
2019-02-06T09:43:02.671Z,27.00
2019-02-06T09:45:32.205Z,26.50
2019-02-06T09:48:01.580Z,26.23
2019-02-06T09:50:36.579Z,25.20
2019-02-06T09:53:05.808Z,25.77
2019-02-06T09:55:35.583Z,28.30
2019-02-06T09:58:05.808Z,25.40
2019-02-06T10:00:37.164Z,24.40
2019-02-06T10:03:08.063Z,25.40
2019-02-06T10:05:37.887Z,28.10
2019-02-06T10:08:07.148Z,25.65
2019-02-06T10:10:36.888Z,25.37
2019-02-06T10:13:06.695Z,24.80
2019-02-06T10:15:37.596Z,28.17
2019-02-06T10:18:07.397Z,28.20
2019-02-06T10:20:39.640Z,27.20
2019-02-06T10:23:09.008Z,28.83
2019-02-06T10:25:38.449Z,27.83
2019-02-06T10:28:07.722Z,27.37
2019-02-06T10:30:48.499Z,27.13
2019-02-06T10:33:19.045Z,24.93
2019-02-06T10:35:51.816Z,28.00
2019-02-06T10:38:19.829Z,26.77
2019-02-06T10:40:49.132Z,25.27
2019-02-06T10:43:18.752Z,26.53
2019-02-06T10:45:47.985Z,26.97
2019-02-06T10:48:17.346Z,25.97
2019-02-06T10:50:48.904Z,25.87
2019-02-06T10:53:18.412Z,26.12
2019-02-06T10:55:47.895Z,26.53
2019-02-06T10:58:17.818Z,26.80
2019-02-06T11:00:58.934Z,24.87
2019-02-06T11:03:28.290Z,26.60
2019-02-06T11:05:58.178Z,24.63
2019-02-06T11:08:27.506Z,25.47
2019-02-06T11:10:57.596Z,23.27
2019-02-06T11:13:26.890Z,25.80
2019-02-06T11:15:56.534Z,23.87
2019-02-06T11:18:32.967Z,25.23
2019-02-06T11:21:02.722Z,24.53
2019-02-06T11:23:37.695Z,22.40
2019-02-06T11:26:07.027Z,24.10
2019-02-06T11:28:36.281Z,23.62
2019-02-06T11:31:11.665Z,21.83
2019-02-06T11:33:46.214Z,23.07
2019-02-06T11:36:23.947Z,20.57
2019-02-06T11:38:46.647Z,22.60
2019-02-06T11:41:16.144Z,21.77
2019-02-06T11:43:45.501Z,22.60
2019-02-06T11:46:14.724Z,24.30
2019-02-06T11:48:44.128Z,23.73
2019-02-06T11:51:13.882Z,22.90
2019-02-06T11:53:43.529Z,22.98
2019-02-06T11:56:12.983Z,23.53
2019-02-06T11:58:42.378Z,22.67
2019-02-06T12:01:28.542Z,23.62
2019-02-06T12:03:57.858Z,23.20
2019-02-06T12:06:27.463Z,22.90
2019-02-06T12:08:56.706Z,23.07
2019-02-06T12:11:26.792Z,22.45
2019-02-06T12:13:56.075Z,23.00
2019-02-06T12:16:26.896Z,22.25
2019-02-06T12:18:59.000Z,22.70
2019-02-06T12:21:57.312Z,24.12
2019-02-06T12:24:26.847Z,23.57
2019-02-06T12:27:01.932Z,23.73
2019-02-06T12:29:32.672Z,21.93
2019-02-06T12:32:05.167Z,22.60
2019-02-06T12:34:34.420Z,23.20
2019-02-06T12:37:03.868Z,22.73
2019-02-06T12:39:33.146Z,22.05
2019-02-06T12:42:02.391Z,22.30
2019-02-06T12:44:31.652Z,21.77
2019-02-06T12:47:01.045Z,23.90
2019-02-06T12:49:32.679Z,22.85
2019-02-06T12:52:01.945Z,23.50
2019-02-06T12:54:31.259Z,22.90
2019-02-06T12:57:00.897Z,21.70
2019-02-06T12:59:32.576Z,21.35
2019-02-06T13:02:02.171Z,23.13
2019-02-06T13:04:31.417Z,24.10
2019-02-06T13:07:00.701Z,25.03
2019-02-06T13:09:29.851Z,24.57
2019-02-06T13:12:01.878Z,25.10
2019-02-06T13:14:31.372Z,24.30
2019-02-06T13:17:11.268Z,22.97
2019-02-06T13:20:37.544Z,24.25
2019-02-06T13:23:11.670Z,24.33
2019-02-06T13:25:49.582Z,25.82
2019-02-06T13:28:36.053Z,23.73
2019-02-06T13:32:00.030Z,23.80
2019-02-06T13:34:29.418Z,23.53
2019-02-06T13:39:04.747Z,24.70
2019-02-06T13:40:27.492Z,25.30
2019-02-06T13:50:29.707Z,23.80
2019-02-06T13:50:41.071Z,24.67
2019-02-06T13:53:34.578Z,26.17
2019-02-06T13:57:33.349Z,23.80
2019-02-06T14:00:57.959Z,23.60
2019-02-06T14:04:18.000Z,23.40
2019-02-06T14:07:51.024Z,22.77
2019-02-06T14:11:27.487Z,22.67
2019-02-06T14:14:13.920Z,23.50
2019-02-06T14:17:11.316Z,23.77
2019-02-06T14:21:10.499Z,22.77
2019-02-06T14:23:57.112Z,23.27
2019-02-06T14:26:57.977Z,23.62
2019-02-06T14:30:36.410Z,23.67
2019-02-06T14:34:03.127Z,22.83
2019-02-06T14:37:34.063Z,21.90
2019-02-06T14:40:31.862Z,23.83
2019-02-06T14:43:41.009Z,21.87
2019-02-06T14:46:27.726Z,23.77
2019-02-06T14:49:15.113Z,22.67
2019-02-06T14:52:18.057Z,21.70
2019-02-06T14:55:31.226Z,23.13
2019-02-06T14:58:51.625Z,23.50
2019-02-06T15:02:02.281Z,22.17
2019-02-06T15:05:12.634Z,23.50
2019-02-06T15:08:20.606Z,23.60
2019-02-06T15:11:47.650Z,22.87
2019-02-06T15:14:29.928Z,22.70
2019-02-06T15:17:33.393Z,23.83
2019-02-06T15:21:14.987Z,23.00
2019-02-06T15:24:30.630Z,23.93
2019-02-06T15:39:05.796Z,23.40
2019-02-06T15:42:39.876Z,24.07
2019-02-06T15:46:03.562Z,26.48
2019-02-06T15:48:47.600Z,25.07
2019-02-06T15:51:45.043Z,23.47
2019-02-06T15:54:38.983Z,25.63
2019-02-06T15:57:59.216Z,23.35
2019-02-06T16:01:07.506Z,26.70
2019-02-06T16:04:17.461Z,28.30
2019-02-06T16:07:14.216Z,26.43
2019-02-06T16:10:01.039Z,26.87
2019-02-06T16:13:11.474Z,30.17
2019-02-06T16:16:24.093Z,28.67
2019-02-06T16:19:25.816Z,29.35
2019-02-06T16:22:27.296Z,30.00
2019-02-06T16:25:51.231Z,29.60
2019-02-06T16:29:09.973Z,28.23
2019-02-06T16:32:10.708Z,28.55
2019-02-06T16:35:34.644Z,29.07
2019-02-06T16:38:43.410Z,28.50
2019-02-06T16:41:53.083Z,28.17
2019-02-06T16:48:30.070Z,28.73
2019-02-06T16:51:41.224Z,28.47
2019-02-06T16:54:42.430Z,27.80
2019-02-06T16:57:40.014Z,28.60
2019-02-06T17:01:06.024Z,28.67
2019-02-06T17:04:19.249Z,28.45
2019-02-06T17:07:01.772Z,28.87
2019-02-06T17:09:52.746Z,30.68
2019-02-06T17:13:09.379Z,30.43
2019-02-06T17:16:31.952Z,30.52
2019-02-06T17:19:37.948Z,28.53
2019-02-06T17:22:35.272Z,31.73
2019-02-06T17:25:41.408Z,29.40
2019-02-06T17:28:59.148Z,32.10
2019-02-06T17:32:11.759Z,31.70
2019-02-06T17:35:16.146Z,33.53
2019-02-06T17:38:29.241Z,29.98
2019-02-06T17:41:19.818Z,29.67
2019-02-06T17:44:29.610Z,32.33
2019-02-06T17:47:29.980Z,29.97
2019-02-06T17:50:30.616Z,28.60
2019-02-06T17:53:42.135Z,25.67
2019-02-06T17:56:11.503Z,24.33
2019-02-06T17:58:43.688Z,23.37
2019-02-06T18:01:49.707Z,23.00
2019-02-06T18:04:31.469Z,23.10
2019-02-06T18:07:01.048Z,23.93
2019-02-06T18:09:30.364Z,23.57
2019-02-06T18:11:59.691Z,21.60
2019-02-06T18:14:29.042Z,21.87
2019-02-06T18:16:58.411Z,20.70
2019-02-06T18:19:27.740Z,23.67
2019-02-06T18:21:57.225Z,23.37
2019-02-06T18:24:27.614Z,22.75
2019-02-06T18:26:58.172Z,23.47
2019-02-06T18:29:27.520Z,23.07
2019-02-06T18:31:56.990Z,23.30
2019-02-06T18:34:26.325Z,23.87
2019-02-06T18:36:56.445Z,22.90
2019-02-06T18:39:25.865Z,20.73
2019-02-06T18:41:55.747Z,22.63
2019-02-06T18:44:31.963Z,22.87
2019-02-06T18:47:02.028Z,23.23
2019-02-06T18:49:31.337Z,21.97
2019-02-06T18:52:00.824Z,22.30
2019-02-06T18:54:38.170Z,22.25
2019-02-06T18:57:07.632Z,22.60
2019-02-06T18:59:37.568Z,21.73
2019-02-06T19:02:06.952Z,20.87
2019-02-06T19:04:36.836Z,21.70
2019-02-06T19:07:25.507Z,24.00
2019-02-06T19:09:55.089Z,23.20
2019-02-06T19:12:24.384Z,22.37
2019-02-06T19:14:53.975Z,21.90
2019-02-06T19:17:23.829Z,22.00
2019-02-06T19:19:55.619Z,23.07
2019-02-06T19:22:26.288Z,25.17
2019-02-06T19:24:56.215Z,23.60
2019-02-06T19:27:25.538Z,24.65
2019-02-06T19:29:55.371Z,24.45
2019-02-06T19:32:24.697Z,25.07
2019-02-06T19:34:54.020Z,25.00
2019-02-06T19:37:23.373Z,24.95
2019-02-06T19:39:53.065Z,24.50
2019-02-06T19:42:23.260Z,23.80
2019-02-06T19:44:52.575Z,23.07
2019-02-06T19:47:22.300Z,25.83
2019-02-06T19:49:51.564Z,22.33
2019-02-06T19:52:21.317Z,23.07
2019-02-06T19:54:51.072Z,23.40
2019-02-06T19:57:20.911Z,23.57
2019-02-06T19:59:50.583Z,22.87
2019-02-06T20:02:20.585Z,21.93
2019-02-06T20:05:01.094Z,21.97
2019-02-06T20:07:30.404Z,23.92
2019-02-06T20:09:59.831Z,26.07
2019-02-06T20:12:29.188Z,26.63
2019-02-06T20:14:58.975Z,23.77
2019-02-06T20:17:28.490Z,23.45
2019-02-06T20:19:57.973Z,20.37
2019-02-06T20:22:27.378Z,20.90
2019-02-06T20:24:56.704Z,22.77
2019-02-06T20:27:26.045Z,22.10
2019-02-06T20:29:55.678Z,21.02
2019-02-06T20:32:25.029Z,22.17
2019-02-06T20:34:56.777Z,20.90
2019-02-06T20:37:26.051Z,22.57
2019-02-06T20:39:55.978Z,23.40
2019-02-06T20:42:25.466Z,25.88
2019-02-06T20:44:55.098Z,22.60
2019-02-06T20:47:24.505Z,22.10
2019-02-06T20:49:53.783Z,25.03
2019-02-06T20:52:23.744Z,23.97
2019-02-06T20:54:54.392Z,24.30
2019-02-06T20:57:25.982Z,26.50
2019-02-06T20:59:55.886Z,24.80
2019-02-06T21:02:25.263Z,24.23
2019-02-06T21:04:54.420Z,25.40
2019-02-06T21:07:23.652Z,22.70
2019-02-06T21:09:52.912Z,25.20
2019-02-06T21:12:22.569Z,23.33
2019-02-06T21:14:51.855Z,23.97
2019-02-06T21:17:23.848Z,24.87
2019-02-06T21:19:53.197Z,22.20
2019-02-06T21:22:22.627Z,24.80
2019-02-06T21:24:51.933Z,23.33
2019-02-06T21:27:21.349Z,22.80
2019-02-06T21:29:50.525Z,22.57
2019-02-06T21:32:21.162Z,23.93
2019-02-06T21:34:51.442Z,23.40
2019-02-06T21:37:20.788Z,24.70
2019-02-06T21:39:50.712Z,24.30
2019-02-06T21:42:20.238Z,23.17
2019-02-06T21:44:49.938Z,22.67
2019-02-06T21:47:20.903Z,22.93
2019-02-06T21:49:50.422Z,24.10
2019-02-06T21:52:19.690Z,23.70
2019-02-06T21:54:51.018Z,24.00
2019-02-06T21:57:20.767Z,22.57
2019-02-06T21:59:51.124Z,24.13
2019-02-06T22:02:20.303Z,22.13
2019-02-06T22:04:51.058Z,22.80
2019-02-06T22:07:20.602Z,23.47
2019-02-06T22:09:49.864Z,24.37
2019-02-06T22:12:19.693Z,23.32
2019-02-06T22:14:53.649Z,23.22
2019-02-06T22:17:20.077Z,24.20
2019-02-06T22:19:49.366Z,23.25
2019-02-06T22:22:18.708Z,23.93
2019-02-06T22:24:47.944Z,24.77
2019-02-06T22:27:17.531Z,23.40
2019-02-06T22:29:46.939Z,24.27
2019-02-06T22:32:16.500Z,24.12
2019-02-06T22:34:58.819Z,26.07
2019-02-06T22:37:28.305Z,27.58
2019-02-06T22:39:58.003Z,27.63
2019-02-06T22:42:27.993Z,23.70
2019-02-06T22:44:57.280Z,23.00
2019-02-06T22:47:26.577Z,24.33
2019-02-06T22:49:57.563Z,21.17
2019-02-06T22:52:26.962Z,24.10
2019-02-06T22:54:56.660Z,25.10
2019-02-06T22:57:25.940Z,22.87
2019-02-06T22:59:55.308Z,24.30
2019-02-06T23:02:24.575Z,25.60
2019-02-06T23:04:53.854Z,25.30
2019-02-06T23:07:23.165Z,23.60
2019-02-06T23:09:52.812Z,22.80
2019-02-06T23:12:22.350Z,24.73
2019-02-06T23:14:51.563Z,22.97
2019-02-06T23:17:20.831Z,23.07
2019-02-06T23:19:50.308Z,23.77
2019-02-06T23:22:19.606Z,23.97
2019-02-06T23:24:49.315Z,22.93
2019-02-06T23:27:18.568Z,25.30
2019-02-06T23:29:48.123Z,24.27
2019-02-06T23:32:17.692Z,23.40
2019-02-06T23:34:46.923Z,25.03
2019-02-06T23:37:16.493Z,23.10
2019-02-06T23:39:46.021Z,23.52
2019-02-06T23:42:15.247Z,23.80
2019-02-06T23:44:44.770Z,26.10
2019-02-06T23:47:13.999Z,25.40
2019-02-06T23:49:43.183Z,22.73
2019-02-06T23:52:12.457Z,23.30
2019-02-06T23:54:41.724Z,23.37
2019-02-06T23:57:11.004Z,24.40
2019-02-06T23:59:40.381Z,25.15
